createdAt,value
2018-07-26T00:00:00.411Z,10.60
2018-07-26T00:05:05.253Z,9.95
2018-07-26T00:07:34.306Z,9.82
2018-07-26T00:10:03.366Z,9.13
2018-07-26T00:12:32.451Z,10.20
2018-07-26T00:15:01.527Z,9.63
2018-07-26T00:17:30.653Z,9.20
2018-07-26T00:19:59.722Z,9.70
2018-07-26T00:25:04.664Z,9.70
2018-07-26T00:27:33.722Z,9.40
2018-07-26T00:32:38.557Z,9.52
2018-07-26T00:35:07.617Z,8.88
2018-07-26T00:37:37.638Z,9.03
2018-07-26T00:42:42.419Z,9.60
2018-07-26T00:45:11.495Z,10.20
2018-07-26T00:47:40.577Z,9.87
2018-07-26T00:50:09.628Z,9.33
2018-07-26T00:52:38.687Z,8.60
2018-07-26T00:55:07.802Z,8.20
2018-07-26T00:57:36.874Z,10.60
2018-07-26T01:00:05.940Z,10.07
2018-07-26T01:02:35.053Z,10.80
2018-07-26T01:05:04.162Z,10.83
2018-07-26T01:07:33.224Z,10.37
2018-07-26T01:10:02.333Z,11.10
2018-07-26T01:12:31.393Z,10.13
2018-07-26T01:15:00.465Z,10.37
2018-07-26T01:17:29.510Z,10.33
2018-07-26T01:19:58.584Z,10.70
2018-07-26T01:22:27.647Z,10.97
2018-07-26T01:24:56.701Z,10.80
2018-07-26T01:27:27.733Z,10.63
2018-07-26T01:29:56.790Z,10.53
2018-07-26T01:32:25.842Z,12.20
2018-07-26T01:34:56.885Z,11.93
2018-07-26T01:37:25.933Z,11.17
2018-07-26T01:39:54.997Z,10.60
2018-07-26T01:42:24.127Z,11.43
2018-07-26T01:44:53.174Z,13.10
2018-07-26T01:47:23.185Z,13.23
2018-07-26T01:49:52.236Z,14.03
2018-07-26T01:52:21.298Z,13.47
2018-07-26T01:54:50.393Z,11.43
2018-07-26T01:57:19.443Z,12.40
2018-07-26T01:59:48.506Z,13.27
2018-07-26T02:04:53.374Z,12.23
2018-07-26T02:07:24.377Z,11.73
2018-07-26T02:14:09.406Z,12.35
2018-07-26T02:16:38.602Z,12.13
2018-07-26T02:19:08.709Z,10.60
2018-07-26T02:21:37.741Z,11.77
2018-07-26T02:24:06.810Z,13.27
2018-07-26T02:26:35.861Z,11.50
2018-07-26T02:34:17.978Z,13.88
2018-07-26T02:36:47.186Z,11.60
2018-07-26T02:39:16.182Z,12.17
2018-07-26T02:41:45.238Z,12.17
2018-07-26T02:44:14.304Z,13.23
2018-07-26T02:51:55.081Z,13.57
2018-07-26T02:59:35.643Z,12.70
2018-07-26T03:02:04.701Z,12.30
2018-07-26T03:04:34.914Z,12.27
2018-07-26T03:07:04.035Z,11.33
2018-07-26T03:09:33.090Z,10.80
2018-07-26T03:12:02.135Z,10.37
2018-07-26T03:17:06.969Z,10.53
2018-07-26T03:19:36.052Z,10.00
2018-07-26T03:24:40.820Z,9.57
2018-07-26T03:27:10.826Z,9.60
2018-07-26T03:29:41.872Z,9.60
2018-07-26T03:32:11.166Z,9.50
2018-07-26T03:34:40.233Z,9.23
2018-07-26T03:37:09.300Z,9.53
2018-07-26T03:44:49.901Z,11.10
2018-07-26T03:47:18.981Z,10.90
2018-07-26T03:49:48.158Z,10.00
2018-07-26T03:52:17.216Z,10.13
2018-07-26T03:54:46.283Z,9.33
2018-07-26T03:57:15.331Z,9.70
2018-07-26T03:59:44.397Z,10.20
2018-07-26T04:07:24.996Z,9.77
2018-07-26T04:09:55.012Z,9.00
2018-07-26T04:12:24.034Z,8.83
2018-07-26T04:14:53.297Z,9.00
2018-07-26T04:17:25.708Z,8.67
2018-07-26T04:19:54.763Z,9.50
2018-07-26T04:22:23.818Z,12.73
2018-07-26T04:24:52.881Z,10.10
2018-07-26T04:27:22.983Z,10.40
2018-07-26T04:29:52.036Z,10.43
2018-07-26T04:32:21.087Z,9.07
2018-07-26T04:34:52.058Z,9.60
2018-07-26T04:39:56.904Z,9.93
2018-07-26T04:42:26.058Z,9.38
2018-07-26T04:44:56.249Z,10.33
2018-07-26T04:47:25.308Z,10.70
2018-07-26T04:49:54.354Z,9.67
2018-07-26T04:52:23.405Z,8.83
2018-07-26T04:54:52.475Z,8.20
2018-07-26T04:57:21.510Z,8.33
2018-07-26T04:59:50.561Z,9.97
2018-07-26T05:02:19.895Z,8.33
2018-07-26T05:07:24.664Z,8.70
2018-07-26T05:09:53.984Z,8.40
2018-07-26T05:12:23.965Z,7.93
2018-07-26T05:17:28.914Z,8.20
2018-07-26T05:22:34.013Z,9.25
2018-07-26T05:27:43.668Z,7.80
2018-07-26T05:32:48.416Z,8.85
2018-07-26T05:35:17.496Z,8.20
2018-07-26T05:37:47.734Z,8.43
2018-07-26T05:40:16.753Z,8.07
2018-07-26T05:42:46.735Z,8.17
2018-07-26T05:45:15.797Z,8.47
2018-07-26T05:47:45.231Z,8.10
2018-07-26T05:50:14.281Z,8.30
2018-07-26T05:52:43.345Z,8.43
2018-07-26T05:55:13.396Z,8.20
2018-07-26T06:00:18.260Z,8.30
2018-07-26T06:02:47.767Z,7.80
2018-07-26T06:05:18.769Z,8.40
2018-07-26T06:07:47.822Z,8.40
2018-07-26T06:10:16.895Z,9.03
2018-07-26T06:12:47.073Z,10.20
2018-07-26T06:20:27.743Z,10.15
2018-07-26T06:22:57.266Z,10.00
2018-07-26T06:25:35.817Z,9.82
2018-07-26T06:28:04.959Z,9.20
2018-07-26T06:30:34.266Z,9.10
2018-07-26T06:33:03.837Z,9.13
2018-07-26T06:35:33.021Z,11.27
2018-07-26T06:40:37.900Z,8.80
2018-07-26T06:48:18.715Z,6.62
2018-07-26T06:50:47.753Z,6.70
2018-07-26T06:53:16.887Z,9.10
2018-07-26T06:55:46.403Z,6.93
2018-07-26T06:58:15.478Z,7.20
2018-07-26T07:03:20.303Z,6.78
2018-07-26T07:05:49.357Z,7.07
2018-07-26T07:08:25.805Z,6.60
2018-07-26T07:10:54.920Z,7.60
2018-07-26T07:13:24.106Z,9.97
2018-07-26T07:18:28.889Z,7.30
2018-07-26T07:20:58.125Z,7.87
2018-07-26T07:23:29.298Z,7.60
2018-07-26T07:25:58.467Z,7.27
2018-07-26T07:31:03.302Z,11.12
2018-07-26T07:36:08.039Z,7.70
2018-07-26T07:38:37.101Z,7.60
2018-07-26T07:43:42.918Z,6.40
2018-07-26T07:46:12.002Z,7.30
2018-07-26T07:48:41.159Z,6.85
2018-07-26T07:51:10.216Z,7.30
2018-07-26T07:53:40.186Z,7.13
2018-07-26T07:58:46.499Z,11.03
2018-07-26T08:01:21.075Z,8.57
2018-07-26T08:03:50.131Z,7.90
2018-07-26T08:06:19.221Z,7.00
2018-07-26T08:08:48.695Z,5.87
2018-07-26T08:11:17.756Z,6.73
2018-07-26T08:13:46.781Z,7.10
2018-07-26T08:16:17.942Z,8.73
2018-07-26T08:18:47.217Z,6.67
2018-07-26T08:21:17.206Z,6.97
2018-07-26T08:26:33.051Z,8.77
2018-07-26T08:29:02.098Z,6.87
2018-07-26T08:34:06.973Z,7.22
2018-07-26T08:36:46.809Z,8.77
2018-07-26T08:39:20.505Z,7.57
2018-07-26T08:41:49.560Z,8.38
2018-07-26T08:49:30.857Z,7.47
2018-07-26T08:52:01.861Z,8.07
2018-07-26T08:57:06.733Z,6.30
2018-07-26T08:59:35.998Z,6.15
2018-07-26T09:02:05.069Z,5.67
2018-07-26T09:04:35.133Z,5.87
2018-07-26T09:07:04.177Z,6.30
2018-07-26T09:09:33.234Z,5.53
2018-07-26T09:12:02.280Z,6.67
2018-07-26T09:14:31.327Z,6.73
2018-07-26T09:17:00.610Z,5.87
2018-07-26T09:19:29.669Z,5.37
2018-07-26T09:21:58.721Z,6.33
2018-07-26T09:24:30.854Z,7.80
2018-07-26T09:27:00.213Z,6.50
2018-07-26T09:29:30.539Z,6.70
2018-07-26T09:32:00.563Z,5.43
2018-07-26T09:34:29.620Z,5.70
2018-07-26T09:39:35.489Z,6.40
2018-07-26T09:42:04.545Z,5.10
2018-07-26T09:44:40.786Z,6.73
2018-07-26T09:47:09.871Z,5.33
2018-07-26T09:49:38.960Z,5.23
2018-07-26T09:52:10.345Z,4.87
2018-07-26T09:54:39.465Z,4.23
2018-07-26T09:59:44.307Z,5.05
2018-07-26T10:04:56.103Z,5.25
2018-07-26T10:07:29.912Z,6.13
2018-07-26T10:09:58.965Z,6.60
2018-07-26T10:12:30.263Z,4.80
2018-07-26T10:14:59.302Z,4.50
2018-07-26T10:20:04.486Z,5.50
2018-07-26T10:22:33.536Z,3.60
2018-07-26T10:25:04.561Z,4.80
2018-07-26T10:27:33.618Z,6.10
2018-07-26T10:30:02.793Z,5.97
2018-07-26T10:32:32.819Z,4.85
2018-07-26T10:37:38.547Z,4.90
2018-07-26T10:40:07.596Z,4.43
2018-07-26T10:42:36.649Z,4.53
2018-07-26T10:45:08.366Z,4.73
2018-07-26T10:47:37.462Z,3.77
2018-07-26T10:50:06.500Z,5.37
2018-07-26T10:55:11.282Z,5.20
2018-07-26T10:57:42.295Z,5.68
2018-07-26T11:00:12.537Z,3.90
2018-07-26T11:02:41.567Z,5.10
2018-07-26T11:05:10.613Z,4.40
2018-07-26T11:07:40.633Z,4.63
2018-07-26T11:10:09.754Z,4.93
2018-07-26T11:12:38.803Z,7.10
2018-07-26T11:15:07.876Z,4.70
2018-07-26T11:17:38.205Z,4.17
2018-07-26T11:20:07.485Z,3.90
2018-07-26T11:22:36.512Z,4.07
2018-07-26T11:25:05.603Z,4.50
2018-07-26T11:27:35.130Z,5.00
2018-07-26T11:30:04.218Z,4.63
2018-07-26T11:32:33.248Z,4.40
2018-07-26T11:35:04.215Z,4.10
2018-07-26T11:37:35.381Z,3.87
2018-07-26T11:40:09.162Z,3.90
2018-07-26T11:42:38.219Z,4.00
2018-07-26T11:45:07.271Z,3.00
2018-07-26T11:47:37.277Z,4.13
2018-07-26T11:50:06.580Z,3.47
2018-07-26T11:55:11.337Z,3.70
2018-07-26T11:57:40.486Z,4.07
2018-07-26T12:00:11.719Z,3.25
2018-07-26T12:02:44.838Z,3.12
2018-07-26T12:05:13.885Z,3.20
2018-07-26T12:07:42.937Z,4.82
2018-07-26T12:10:12.262Z,3.60
2018-07-26T12:12:41.306Z,3.60
2018-07-26T12:17:46.088Z,3.62
2018-07-26T12:22:50.997Z,3.80
2018-07-26T12:25:20.025Z,3.67
2018-07-26T12:27:49.093Z,3.50
2018-07-26T12:30:18.217Z,3.40
2018-07-26T12:32:47.305Z,3.23
2018-07-26T12:35:16.366Z,5.07
2018-07-26T12:37:46.233Z,3.20
2018-07-26T12:42:50.978Z,3.62
2018-07-26T12:45:20.277Z,4.70
2018-07-26T12:50:25.030Z,3.40
2018-07-26T12:52:55.031Z,3.90
2018-07-26T12:55:25.045Z,3.93
2018-07-26T12:57:54.092Z,4.37
2018-07-26T13:00:23.399Z,4.40
2018-07-26T13:02:52.453Z,4.23
2018-07-26T13:05:22.469Z,4.80
2018-07-26T13:07:58.795Z,4.80
2018-07-26T13:10:27.862Z,4.10
2018-07-26T13:12:58.857Z,4.47
2018-07-26T13:15:28.243Z,4.60
2018-07-26T13:17:57.379Z,4.90
2018-07-26T13:20:26.417Z,4.13
2018-07-26T13:25:31.341Z,4.53
2018-07-26T13:28:00.397Z,4.65
2018-07-26T13:30:33.210Z,4.87
2018-07-26T13:33:04.251Z,6.47
2018-07-26T13:35:34.577Z,4.57
2018-07-26T13:38:03.604Z,5.07
2018-07-26T13:40:32.651Z,5.47
2018-07-26T13:43:01.933Z,7.90
2018-07-26T13:45:31.152Z,5.03
2018-07-26T13:50:36.272Z,5.68
2018-07-26T13:58:24.771Z,27.60
2018-07-26T14:00:55.801Z,42.37
2018-07-26T14:03:25.002Z,5.53
2018-07-26T14:05:54.080Z,5.57
2018-07-26T14:08:24.101Z,5.67
2018-07-26T14:10:55.147Z,7.70
2018-07-26T14:13:24.466Z,5.07
2018-07-26T14:15:55.768Z,5.07
2018-07-26T14:18:24.716Z,6.27
2018-07-26T14:20:57.470Z,6.25
2018-07-26T14:23:26.529Z,5.53
2018-07-26T14:25:55.578Z,7.27
2018-07-26T14:28:27.924Z,5.50
2018-07-26T14:30:57.500Z,6.00
2018-07-26T14:36:02.669Z,6.82
2018-07-26T14:38:31.714Z,7.37
2018-07-26T14:41:00.769Z,6.07
2018-07-26T14:43:29.817Z,6.10
2018-07-26T14:48:34.183Z,6.70
2018-07-26T14:51:03.560Z,5.90
2018-07-26T14:53:33.566Z,5.73
2018-07-26T14:56:03.596Z,5.33
2018-07-26T14:58:37.433Z,7.23
2018-07-26T15:01:07.419Z,4.80
2018-07-26T15:03:36.489Z,6.03
2018-07-26T15:06:05.849Z,5.03
2018-07-26T15:08:34.893Z,4.40
2018-07-26T15:11:05.895Z,5.27
2018-07-26T15:13:34.938Z,7.75
2018-07-26T15:16:04.748Z,6.20
2018-07-26T15:18:33.808Z,5.50
2018-07-26T15:26:15.317Z,5.43
2018-07-26T15:28:44.340Z,5.53
2018-07-26T15:31:16.887Z,5.53
2018-07-26T15:36:19.198Z,5.32
2018-07-26T15:38:50.211Z,5.00
2018-07-26T15:41:19.264Z,4.67
2018-07-26T15:46:24.244Z,5.78
2018-07-26T15:48:53.429Z,5.50
2018-07-26T15:51:22.582Z,6.25
2018-07-26T15:53:51.637Z,5.85
2018-07-26T15:56:20.691Z,5.37
2018-07-26T15:58:50.768Z,6.15
2018-07-26T16:01:21.018Z,5.80
2018-07-26T16:03:51.050Z,5.82
2018-07-26T16:06:21.077Z,6.73
2018-07-26T16:11:25.965Z,5.53
2018-07-26T16:13:56.036Z,4.72
2018-07-26T16:16:25.089Z,12.80
2018-07-26T16:21:30.092Z,4.70
2018-07-26T16:23:59.294Z,4.75
2018-07-26T16:26:29.395Z,4.72
2018-07-26T16:28:59.492Z,4.63
2018-07-26T16:31:28.477Z,4.72
2018-07-26T16:33:57.696Z,4.30
2018-07-26T16:39:02.525Z,5.30
2018-07-26T16:41:32.617Z,4.50
2018-07-26T16:44:01.669Z,7.87
2018-07-26T16:46:30.730Z,5.60
2018-07-26T16:51:35.492Z,5.45
2018-07-26T16:54:04.545Z,5.70
2018-07-26T16:56:34.736Z,5.73
2018-07-26T17:01:39.660Z,5.40
2018-07-26T17:04:12.511Z,6.00
2018-07-26T17:06:45.204Z,4.30
2018-07-26T17:09:14.262Z,5.37
2018-07-26T17:11:47.120Z,5.80
2018-07-26T17:14:17.301Z,6.07
2018-07-26T17:16:46.413Z,4.67
2018-07-26T17:19:18.556Z,5.53
2018-07-26T17:21:49.577Z,5.20
2018-07-26T17:24:18.627Z,5.20
2018-07-26T17:26:47.692Z,5.20
2018-07-26T17:29:16.912Z,5.03
2018-07-26T17:31:46.001Z,5.18
2018-07-26T17:34:15.058Z,4.80
2018-07-26T17:36:44.160Z,5.87
2018-07-26T17:39:13.310Z,5.03
2018-07-26T17:41:42.326Z,5.27
2018-07-26T17:44:11.397Z,4.60
2018-07-26T17:46:41.432Z,6.37
2018-07-26T17:51:48.242Z,6.50
2018-07-26T17:54:17.291Z,5.87
2018-07-26T17:59:22.104Z,5.72
2018-07-26T18:01:52.253Z,5.30
2018-07-26T18:04:22.335Z,6.20
2018-07-26T18:06:52.346Z,5.97
2018-07-26T18:09:21.393Z,7.47
2018-07-26T18:11:50.454Z,5.63
2018-07-26T18:14:19.742Z,5.27
2018-07-26T18:19:24.621Z,5.10
2018-07-26T18:21:53.681Z,5.30
2018-07-26T18:24:27.501Z,6.07
2018-07-26T18:27:00.629Z,5.33
2018-07-26T18:29:31.725Z,5.53
2018-07-26T18:32:02.686Z,6.37
2018-07-26T18:37:07.647Z,8.25
2018-07-26T18:39:37.664Z,6.30
2018-07-26T18:44:42.604Z,6.57
2018-07-26T18:49:56.062Z,5.90
2018-07-26T18:52:25.156Z,6.07
2018-07-26T18:55:01.654Z,5.70
2018-07-26T18:57:32.673Z,5.47
2018-07-26T19:00:12.308Z,6.23
2018-07-26T19:02:42.526Z,9.53
2018-07-26T19:05:11.716Z,7.83
2018-07-26T19:10:20.480Z,7.47
2018-07-26T19:12:49.538Z,8.63
2018-07-26T19:15:25.643Z,9.33
2018-07-26T19:20:30.510Z,6.95
2018-07-26T19:23:00.568Z,7.50
2018-07-26T19:25:29.615Z,6.13
2018-07-26T19:28:00.649Z,7.73
2018-07-26T19:30:29.701Z,6.90
2018-07-26T19:32:58.753Z,7.80
2018-07-26T19:35:27.833Z,8.20
2018-07-26T19:40:32.634Z,7.93
2018-07-26T19:43:04.972Z,7.00
2018-07-26T19:45:34.034Z,7.40
2018-07-26T19:48:03.115Z,8.03
2018-07-26T19:50:32.202Z,7.20
2018-07-26T19:53:04.281Z,7.93
2018-07-26T19:55:37.139Z,6.93
2018-07-26T20:00:41.997Z,7.75
2018-07-26T20:03:11.085Z,8.93
2018-07-26T20:05:40.114Z,8.03
2018-07-26T20:08:09.272Z,8.47
2018-07-26T20:10:38.346Z,7.83
2018-07-26T20:13:07.382Z,15.43
2018-07-26T20:15:38.183Z,7.07
2018-07-26T20:18:07.639Z,8.90
2018-07-26T20:23:12.503Z,7.40
2018-07-26T20:25:41.543Z,7.70
2018-07-26T20:28:11.026Z,8.00
2018-07-26T20:30:40.128Z,7.07
2018-07-26T20:33:09.255Z,8.73
2018-07-26T20:35:38.321Z,8.03
2018-07-26T20:38:07.378Z,7.67
2018-07-26T20:40:36.437Z,7.23
2018-07-26T20:43:05.517Z,9.20
2018-07-26T20:45:34.611Z,8.07
2018-07-26T20:50:40.479Z,7.47
2018-07-26T20:53:10.469Z,8.23
2018-07-26T20:55:40.490Z,7.80
2018-07-26T20:58:09.547Z,8.50
2018-07-26T21:00:38.597Z,8.23
2018-07-26T21:03:07.653Z,12.57
2018-07-26T21:05:36.730Z,8.10
2018-07-26T21:08:05.785Z,8.80
2018-07-26T21:10:35.805Z,9.80
2018-07-26T21:13:04.862Z,8.77
2018-07-26T21:15:33.929Z,10.57
2018-07-26T21:20:38.830Z,9.30
2018-07-26T21:23:07.874Z,8.77
2018-07-26T21:25:38.968Z,8.20
2018-07-26T21:28:08.006Z,7.37
2018-07-26T21:30:37.087Z,8.33
2018-07-26T21:33:06.117Z,8.43
2018-07-26T21:38:10.990Z,8.90
2018-07-26T21:40:40.381Z,8.38
2018-07-26T21:43:09.379Z,7.87
2018-07-26T21:48:14.229Z,9.15
2018-07-26T21:53:19.085Z,9.32
2018-07-26T21:55:49.087Z,9.30
2018-07-26T21:58:18.140Z,8.20
2018-07-26T22:00:47.235Z,8.23
2018-07-26T22:03:16.278Z,11.32
2018-07-26T22:05:45.345Z,8.00
2018-07-26T22:08:14.412Z,9.87
2018-07-26T22:10:44.415Z,8.07
2018-07-26T22:13:13.474Z,8.90
2018-07-26T22:18:18.258Z,9.10
2018-07-26T22:20:49.293Z,9.02
2018-07-26T22:23:18.452Z,9.30
2018-07-26T22:25:49.326Z,9.10
2018-07-26T22:28:19.346Z,9.20
2018-07-26T22:30:50.397Z,8.63
2018-07-26T22:33:19.471Z,8.73
2018-07-26T22:35:48.532Z,9.93
2018-07-26T22:38:17.585Z,10.87
2018-07-26T22:40:47.525Z,9.10
2018-07-26T22:43:16.609Z,9.77
2018-07-26T22:45:47.651Z,10.43
2018-07-26T22:48:16.713Z,10.00
2018-07-26T22:50:46.804Z,9.80
2018-07-26T22:53:15.854Z,10.67
2018-07-26T22:58:20.643Z,9.95
2018-07-26T23:00:49.689Z,9.00
2018-07-26T23:03:18.852Z,9.70
2018-07-26T23:05:47.921Z,9.30
2018-07-26T23:08:17.933Z,9.53
2018-07-26T23:10:47.038Z,9.00
2018-07-26T23:18:29.634Z,11.20
2018-07-26T23:20:58.796Z,10.00
2018-07-26T23:23:27.856Z,11.40
2018-07-26T23:25:56.921Z,10.40
2018-07-26T23:28:25.985Z,10.03
2018-07-26T23:30:55.025Z,9.30
2018-07-26T23:33:24.093Z,11.10
2018-07-26T23:35:53.325Z,10.90
2018-07-26T23:38:22.417Z,9.60
2018-07-26T23:40:51.505Z,10.60
2018-07-26T23:43:20.549Z,9.67
2018-07-26T23:45:49.627Z,9.70
2018-07-26T23:48:18.738Z,10.27
2018-07-26T23:50:47.846Z,10.07
2018-07-26T23:53:16.906Z,11.00
2018-07-26T23:55:46.897Z,9.77
